»·PEaware :: SWA956 KRNO-KSJC

SWA956 :: KRNO-KSJC

FLIGHT INFORMATION

Flight Status: Arrived
Operator:
Southwest Airlines
More flights by this operator :: More flights under this callsign
Pilot: Herb P. (797)
Aircraft: BOEING 737-300
(B733)
More flights by this aircraft type
Origin: KRNO Reno/Tahoe Intl
United States
Destination: KSJC Mineta San Jose Intl
United States
More flights between these airports :: More routes between these airports
Route: PVINE3 CRDDZ DARBI STUBL RAZRR4
File this flight plan on PilotEdge
Remarks:
Altitude:
(Current/Filed)
24,000ft
Speed:
(Current/Filed)
470kts
Departed: 09-May-18 07:18 PM
Arrived: 09-May-18 08:09 PM
Distance/Time
Traveled:
163nm/0:51
Distance/Time
To Go:
Arrived

Flight Plot

Page will automatically refresh every two minutes.

Flight plan parsing failed; only flown route is shown


Map Options




Map Legend


Flown Route
Filed Route
Departure Airport
Arrival Airport
Navaid (VOR, NDB)
Fix

Horizontal Profiles

Position Reports

Time Latitude Longitude Heading Altitude Ground
Speed
09-May-18 18:59 39.505222 -119.773671 179 4422ft 0kts
09-May-18 19:00 39.505222 -119.773671 179 4422ft 0kts
09-May-18 19:01 39.505222 -119.773671 179 4422ft 0kts
09-May-18 19:02 39.505222 -119.773671 179 4422ft 0kts
09-May-18 19:03 39.505222 -119.773671 179 4422ft 0kts
09-May-18 19:04 39.505222 -119.773671 179 4422ft 0kts
09-May-18 19:05 39.505222 -119.773671 179 4422ft 0kts
09-May-18 19:06 39.505222 -119.773671 179 4422ft 0kts
09-May-18 19:07 39.505222 -119.773671 179 4422ft 0kts
09-May-18 19:08 39.505222 -119.773671 179 4422ft 0kts
09-May-18 19:09 39.505222 -119.773671 179 4422ft 0kts
09-May-18 19:10 39.505222 -119.773671 179 4422ft 0kts
09-May-18 19:11 39.505222 -119.773671 179 4422ft 0kts
09-May-18 19:12 39.505582 -119.773365 59 4422ft 7kts
09-May-18 19:13 39.503893 -119.771512 180 4422ft 19kts
09-May-18 19:14 39.496993 -119.771528 179 4422ft 26kts
09-May-18 19:15 39.489831 -119.771536 179 4422ft 27kts
09-May-18 19:16 39.483856 -119.771109 113 4422ft 11kts
09-May-18 19:17 39.483782 -119.770672 94 4422ft 0kts
09-May-18 19:18 39.488429 -119.769309 0 4422ft 90kts
09-May-18 19:19 39.533827 -119.775116 315 5358ft 193kts
09-May-18 19:20 39.579172 -119.820973 321 6304ft 253kts
09-May-18 19:21 39.638205 -119.873529 310 8905ft 273kts
09-May-18 19:22 39.647546 -119.952645 235 11215ft 267kts
09-May-18 19:23 39.584203 -119.971000 164 12723ft 319kts
09-May-18 19:24 39.497551 -119.957060 176 15280ft 323kts
09-May-18 19:25 39.408913 -119.940658 175 17549ft 333kts
09-May-18 19:26 39.316850 -119.922957 175 19689ft 341kts
09-May-18 19:27 39.222474 -119.904868 175 21588ft 349kts
09-May-18 19:28 39.125555 -119.886390 175 23129ft 362kts
09-May-18 19:29 39.024129 -119.867114 175 23910ft 387kts
09-May-18 19:30 38.913618 -119.846128 174 23902ft 419kts
09-May-18 19:31 38.797002 -119.824092 174 23975ft 426kts
09-May-18 19:32 38.680290 -119.802052 174 23987ft 427kts
09-May-18 19:33 38.563612 -119.780185 174 24002ft 425kts
09-May-18 19:34 38.447256 -119.758379 174 24049ft 426kts
09-May-18 19:35 38.339013 -119.738221 174 24038ft 425kts
09-May-18 19:36 38.223778 -119.745939 191 24059ft 423kts
09-May-18 19:37 38.108893 -119.769936 190 24041ft 419kts
09-May-18 19:38 37.994638 -119.793093 190 24039ft 420kts
09-May-18 19:39 37.879481 -119.816347 190 24055ft 422kts
09-May-18 19:40 37.765018 -119.839370 190 24041ft 420kts
09-May-18 19:41 37.650660 -119.862315 190 24048ft 421kts
09-May-18 19:42 37.555439 -119.881368 191 24045ft 419kts
09-May-18 19:43 37.441271 -119.904459 190 24042ft 423kts
09-May-18 19:44 37.329014 -119.926792 190 24032ft 385kts
09-May-18 19:45 37.236788 -119.972277 229 24056ft 370kts
09-May-18 19:46 37.211322 -120.099494 257 24042ft 384kts
09-May-18 19:47 37.199990 -120.212301 257 23256ft 384kts
09-May-18 19:48 37.185833 -120.342413 257 21289ft 382kts
09-May-18 19:49 37.170315 -120.473370 258 20025ft 386kts
09-May-18 19:50 37.159357 -120.579424 257 20090ft 358kts
09-May-18 19:51 37.145645 -120.702077 257 19497ft 354kts
09-May-18 19:52 37.133977 -120.805229 257 18460ft 350kts
09-May-18 19:53 37.122297 -120.909120 257 16975ft 341kts
09-May-18 19:54 37.109540 -121.023279 258 14945ft 329kts
09-May-18 19:55 37.098882 -121.133221 271 12447ft 338kts
09-May-18 19:56 37.111096 -121.237233 273 10563ft 282kts
09-May-18 19:57 37.121078 -121.324560 273 9750ft 238kts
09-May-18 19:58 37.130849 -121.411017 275 8447ft 248kts
09-May-18 19:59 37.140602 -121.499292 276 7078ft 261kts
09-May-18 20:00 37.150076 -121.584517 276 5688ft 242kts
09-May-18 20:01 37.158898 -121.665062 277 4409ft 237kts
09-May-18 20:02 37.185281 -121.735701 317 3894ft 239kts
09-May-18 20:03 37.228350 -121.782971 317 3533ft 192kts
09-May-18 20:04 37.260981 -121.818678 317 2509ft 139kts
09-May-18 20:05 37.289225 -121.849534 318 1826ft 149kts
09-May-18 20:06 37.314876 -121.877523 318 1195ft 142kts
09-May-18 20:07 37.341740 -121.906932 318 467ft 140kts
09-May-18 20:08 37.365475 -121.932940 318 56ft 45kts
09-May-18 20:09 37.368111 -121.932992 48 56ft 12kts
09-May-18 20:10 37.369408 -121.930622 49 56ft 0kts
09-May-18 20:11 37.369408 -121.930622 49 56ft 0kts

Navigation Log

Ident Type
Flight plan parsing failed, navigation log unavailable